Flugplatz Uetersen/Heist

EDHE · 石勒苏益格-荷尔斯泰因, 德国

罗盘
风向 的 风向 200° Uetersen/Heist Airport 9/27
风: 8 kt, 3 beaufort

3 kt

8 kt
改变
0 1.000 2.000 3.000 4.000 5.000
CAVOK
METAR EDHI 071750Z 20008KT CAVOK 15/09 Q1017

METAR Uetersen/Heist Airport - EDHE

Uetersen/Heist Airport是Uetersen,德国中的小机场。 该机场有一条跑道: 9/27. 该领域的国际民航组织标志是EDHE.

这份报告是针对2022年10月7日 19:50, 当地时间在Hamburg-Finkenwerder Airport进行的。

机场观察

风向为200°,速度为8 kt。

天气为CAVOK。这意味着在5.000 ft或MSA(最低安全高度)以下(以较高者为准)以下没有云。这也意味着没有观测到积雨云或高耸的积云,可见度为10 km 或者更多或更高。此外,不会有雾,降雨或其他重要天气。

温度和风寒是15 °C。 露点为9 °C,相对湿度为68%。 海平面上的气压为1017 hPa (QNH)。

白天

今天,太阳从07:33升起,在18:44降落。 这适用于Uetersen/Heist Airport,世界夏令时可能有所不同。 当地时间与世界标准时间之间的时差为+2 小时。 夏令时目前正在进行中。

公司介绍

我们没有关于这个机场的公司信息。

体会

到Vliegles.nl去找飞行课程,跳伞和其他飞行体验。 浏览页面,了解Uetersen/Heist Airport附近所有可用的活动。 你也可以使用搜索功能来寻找你所在地附近的特定飞行课程、跳伞或其他飞行体验。

跑道

Id 标题 侧风 逆风 侧风 %
9/27 090°-270° 8 kt 3 kt 94 %

逆风成分最大的方向会被突出显示,并用于横风计算。 这并不一定意味着这个方向在使用。

温度 & 天气

温度 15 °C
露点 9 °C
相对湿度 68%
Kp-index 0 (0-9)

白天

日出
07:33
中午
13:08
日落
18:43

小工具

你想在你的网站上有一个关于Uetersen/Heist Airport的当前航空天气(METAR)的小部件吗?

</> 显示HTML代码

我们和第三方通过cookies跟踪您在我们网站上的上网行为。如果您继续,我们认为您同意我们的cookie政策。 了解更多